sensor_id;sensor_type;location;lat;lon;timestamp;P1;durP1;ratioP1;P2;durP2;ratioP2
38435;SDS011;24220;48.168;14.024;2022-09-24T00:02:32;8.68;;;6.63;;
38435;SDS011;24220;48.168;14.024;2022-09-24T00:05:02;8.60;;;6.00;;
38435;SDS011;24220;48.168;14.024;2022-09-24T00:07:29;9.57;;;6.85;;
38435;SDS011;24220;48.168;14.024;2022-09-24T00:09:57;8.60;;;6.05;;
38435;SDS011;24220;48.168;14.024;2022-09-24T00:12:24;9.68;;;6.28;;
38435;SDS011;24220;48.168;14.024;2022-09-24T00:14:56;8.30;;;6.55;;
38435;SDS011;24220;48.168;14.024;2022-09-24T00:17:24;8.18;;;5.80;;
38435;SDS011;24220;48.168;14.024;2022-09-24T00:19:53;7.13;;;5.88;;
38435;SDS011;24220;48.168;14.024;2022-09-24T00:22:25;7.25;;;5.95;;
38435;SDS011;24220;48.168;14.024;2022-09-24T00:24:53;10.93;;;6.00;;
38435;SDS011;24220;48.168;14.024;2022-09-24T00:27:38;8.07;;;5.78;;
38435;SDS011;24220;48.168;14.024;2022-09-24T00:30:06;8.07;;;6.30;;
38435;SDS011;24220;48.168;14.024;2022-09-24T00:32:36;7.28;;;6.10;;
38435;SDS011;24220;48.168;14.024;2022-09-24T00:35:03;8.35;;;6.30;;
38435;SDS011;24220;48.168;14.024;2022-09-24T00:37:32;8.77;;;6.20;;
38435;SDS011;24220;48.168;14.024;2022-09-24T00:39:59;9.00;;;6.93;;
38435;SDS011;24220;48.168;14.024;2022-09-24T00:42:27;8.68;;;6.35;;
38435;SDS011;24220;48.168;14.024;2022-09-24T00:44:58;9.27;;;6.18;;
38435;SDS011;24220;48.168;14.024;2022-09-24T00:53:05;9.43;;;6.28;;
38435;SDS011;24220;48.168;14.024;2022-09-24T00:55:43;7.00;;;5.80;;
38435;SDS011;24220;48.168;14.024;2022-09-24T00:58:17;7.82;;;5.90;;
38435;SDS011;24220;48.168;14.024;2022-09-24T01:00:44;9.38;;;6.60;;
38435;SDS011;24220;48.168;14.024;2022-09-24T01:03:17;8.93;;;6.28;;
38435;SDS011;24220;48.168;14.024;2022-09-24T01:05:48;10.68;;;6.65;;
38435;SDS011;24220;48.168;14.024;2022-09-24T01:08:16;7.10;;;5.90;;
38435;SDS011;24220;48.168;14.024;2022-09-24T01:16:37;9.52;;;6.03;;
38435;SDS011;24220;48.168;14.024;2022-09-24T01:19:31;9.68;;;6.03;;
38435;SDS011;24220;48.168;14.024;2022-09-24T01:27:59;8.38;;;5.78;;
38435;SDS011;24220;48.168;14.024;2022-09-24T01:30:35;8.38;;;6.40;;
38435;SDS011;24220;48.168;14.024;2022-09-24T01:33:10;8.23;;;6.13;;
38435;SDS011;24220;48.168;14.024;2022-09-24T01:35:49;8.75;;;6.00;;
38435;SDS011;24220;48.168;14.024;2022-09-24T01:38:22;8.18;;;5.97;;
38435;SDS011;24220;48.168;14.024;2022-09-24T01:40:55;9.65;;;6.40;;
38435;SDS011;24220;48.168;14.024;2022-09-24T01:43:26;9.43;;;7.30;;
38435;SDS011;24220;48.168;14.024;2022-09-24T01:45:59;9.40;;;6.10;;
38435;SDS011;24220;48.168;14.024;2022-09-24T01:48:32;9.45;;;7.00;;
38435;SDS011;24220;48.168;14.024;2022-09-24T01:53:59;8.85;;;6.00;;
38435;SDS011;24220;48.168;14.024;2022-09-24T01:56:52;8.95;;;6.20;;
38435;SDS011;24220;48.168;14.024;2022-09-24T01:59:32;9.10;;;6.18;;
38435;SDS011;24220;48.168;14.024;2022-09-24T02:02:09;8.18;;;5.30;;
38435;SDS011;24220;48.168;14.024;2022-09-24T02:04:48;8.15;;;5.53;;
38435;SDS011;24220;48.168;14.024;2022-09-24T02:07:23;7.40;;;5.60;;
38435;SDS011;24220;48.168;14.024;2022-09-24T02:10:01;8.65;;;5.47;;
38435;SDS011;24220;48.168;14.024;2022-09-24T02:12:36;8.05;;;5.90;;
38435;SDS011;24220;48.168;14.024;2022-09-24T02:15:21;7.43;;;5.78;;
38435;SDS011;24220;48.168;14.024;2022-09-24T02:18:01;10.38;;;5.57;;
38435;SDS011;24220;48.168;14.024;2022-09-24T02:20:33;7.85;;;5.05;;
38435;SDS011;24220;48.168;14.024;2022-09-24T02:23:02;7.22;;;5.78;;
38435;SDS011;24220;48.168;14.024;2022-09-24T02:25:38;7.18;;;5.45;;
38435;SDS011;24220;48.168;14.024;2022-09-24T02:28:18;9.90;;;5.57;;
38435;SDS011;24220;48.168;14.024;2022-09-24T02:30:56;9.70;;;6.53;;
38435;SDS011;24220;48.168;14.024;2022-09-24T02:33:31;7.03;;;6.32;;
38435;SDS011;24220;48.168;14.024;2022-09-24T02:36:23;9.85;;;6.68;;
38435;SDS011;24220;48.168;14.024;2022-09-24T02:38:51;11.07;;;6.85;;
38435;SDS011;24220;48.168;14.024;2022-09-24T02:41:19;9.18;;;6.30;;
38435;SDS011;24220;48.168;14.024;2022-09-24T02:43:51;10.30;;;7.03;;
38435;SDS011;24220;48.168;14.024;2022-09-24T02:48:48;9.88;;;6.50;;
38435;SDS011;24220;48.168;14.024;2022-09-24T02:51:20;8.35;;;6.90;;
38435;SDS011;24220;48.168;14.024;2022-09-24T02:53:51;7.72;;;6.47;;
38435;SDS011;24220;48.168;14.024;2022-09-24T02:56:18;10.27;;;7.38;;
38435;SDS011;24220;48.168;14.024;2022-09-24T02:58:46;7.60;;;6.53;;
38435;SDS011;24220;48.168;14.024;2022-09-24T03:01:13;7.13;;;6.43;;
38435;SDS011;24220;48.168;14.024;2022-09-24T03:03:45;8.93;;;6.60;;
38435;SDS011;24220;48.168;14.024;2022-09-24T03:06:13;10.25;;;6.03;;
38435;SDS011;24220;48.168;14.024;2022-09-24T03:08:43;7.40;;;6.60;;
38435;SDS011;24220;48.168;14.024;2022-09-24T03:11:15;8.38;;;6.85;;
38435;SDS011;24220;48.168;14.024;2022-09-24T03:13:44;7.25;;;6.55;;
38435;SDS011;24220;48.168;14.024;2022-09-24T03:16:12;9.63;;;6.65;;
38435;SDS011;24220;48.168;14.024;2022-09-24T03:18:40;8.73;;;7.40;;
38435;SDS011;24220;48.168;14.024;2022-09-24T03:21:12;7.70;;;6.72;;
38435;SDS011;24220;48.168;14.024;2022-09-24T03:23:41;8.88;;;6.70;;
38435;SDS011;24220;48.168;14.024;2022-09-24T03:26:09;8.25;;;6.82;;
38435;SDS011;24220;48.168;14.024;2022-09-24T03:28:37;8.10;;;6.60;;
38435;SDS011;24220;48.168;14.024;2022-09-24T03:31:05;8.43;;;7.05;;
38435;SDS011;24220;48.168;14.024;2022-09-24T03:33:35;7.97;;;6.65;;
38435;SDS011;24220;48.168;14.024;2022-09-24T03:36:06;8.00;;;6.75;;
38435;SDS011;24220;48.168;14.024;2022-09-24T03:38:46;8.82;;;6.45;;
38435;SDS011;24220;48.168;14.024;2022-09-24T03:41:18;9.10;;;6.60;;
38435;SDS011;24220;48.168;14.024;2022-09-24T03:43:46;7.07;;;6.35;;
38435;SDS011;24220;48.168;14.024;2022-09-24T03:46:13;8.05;;;6.88;;
38435;SDS011;24220;48.168;14.024;2022-09-24T03:48:46;12.18;;;6.90;;
38435;SDS011;24220;48.168;14.024;2022-09-24T03:51:14;6.95;;;6.30;;
38435;SDS011;24220;48.168;14.024;2022-09-24T03:53:45;7.85;;;6.82;;
38435;SDS011;24220;48.168;14.024;2022-09-24T03:56:13;9.75;;;7.05;;
38435;SDS011;24220;48.168;14.024;2022-09-24T03:58:43;9.02;;;6.60;;
38435;SDS011;24220;48.168;14.024;2022-09-24T04:01:13;8.45;;;7.25;;
38435;SDS011;24220;48.168;14.024;2022-09-24T04:03:48;10.55;;;6.65;;
38435;SDS011;24220;48.168;14.024;2022-09-24T04:06:23;9.27;;;7.63;;
38435;SDS011;24220;48.168;14.024;2022-09-24T04:08:53;8.43;;;7.53;;
38435;SDS011;24220;48.168;14.024;2022-09-24T04:11:21;7.57;;;6.75;;
38435;SDS011;24220;48.168;14.024;2022-09-24T04:13:50;9.70;;;7.65;;
38435;SDS011;24220;48.168;14.024;2022-09-24T04:16:17;8.75;;;7.20;;
38435;SDS011;24220;48.168;14.024;2022-09-24T04:18:47;8.80;;;6.75;;
38435;SDS011;24220;48.168;14.024;2022-09-24T04:21:15;8.02;;;6.68;;
38435;SDS011;24220;48.168;14.024;2022-09-24T04:23:45;8.32;;;7.05;;
38435;SDS011;24220;48.168;14.024;2022-09-24T04:26:15;8.77;;;6.40;;
38435;SDS011;24220;48.168;14.024;2022-09-24T04:28:48;8.68;;;7.00;;
38435;SDS011;24220;48.168;14.024;2022-09-24T04:31:19;7.53;;;6.38;;
38435;SDS011;24220;48.168;14.024;2022-09-24T04:33:49;7.78;;;6.97;;
38435;SDS011;24220;48.168;14.024;2022-09-24T04:36:19;7.55;;;6.43;;
38435;SDS011;24220;48.168;14.024;2022-09-24T04:38:46;9.57;;;6.78;;
38435;SDS011;24220;48.168;14.024;2022-09-24T04:41:16;7.22;;;6.53;;
38435;SDS011;24220;48.168;14.024;2022-09-24T04:43:43;9.57;;;7.45;;
38435;SDS011;24220;48.168;14.024;2022-09-24T04:46:12;7.38;;;6.65;;
38435;SDS011;24220;48.168;14.024;2022-09-24T04:48:40;7.38;;;6.60;;
38435;SDS011;24220;48.168;14.024;2022-09-24T04:51:08;6.70;;;5.82;;
38435;SDS011;24220;48.168;14.024;2022-09-24T04:53:36;7.55;;;6.75;;
38435;SDS011;24220;48.168;14.024;2022-09-24T04:56:03;8.02;;;6.20;;
38435;SDS011;24220;48.168;14.024;2022-09-24T04:58:37;7.55;;;6.10;;
38435;SDS011;24220;48.168;14.024;2022-09-24T05:01:05;8.88;;;6.60;;
38435;SDS011;24220;48.168;14.024;2022-09-24T05:03:35;8.57;;;6.40;;
38435;SDS011;24220;48.168;14.024;2022-09-24T05:06:05;7.07;;;6.18;;
38435;SDS011;24220;48.168;14.024;2022-09-24T05:08:32;9.05;;;6.53;;
38435;SDS011;24220;48.168;14.024;2022-09-24T05:11:00;9.43;;;6.55;;
38435;SDS011;24220;48.168;14.024;2022-09-24T05:13:28;7.57;;;6.45;;
38435;SDS011;24220;48.168;14.024;2022-09-24T05:15:55;8.15;;;6.38;;
38435;SDS011;24220;48.168;14.024;2022-09-24T05:18:27;7.18;;;6.47;;
38435;SDS011;24220;48.168;14.024;2022-09-24T05:20:56;7.15;;;6.15;;
38435;SDS011;24220;48.168;14.024;2022-09-24T05:25:55;9.05;;;6.15;;
38435;SDS011;24220;48.168;14.024;2022-09-24T05:28:44;6.50;;;5.90;;
38435;SDS011;24220;48.168;14.024;2022-09-24T05:31:11;7.68;;;6.65;;
38435;SDS011;24220;48.168;14.024;2022-09-24T05:33:43;6.70;;;6.00;;
38435;SDS011;24220;48.168;14.024;2022-09-24T05:36:10;10.05;;;6.65;;
38435;SDS011;24220;48.168;14.024;2022-09-24T05:38:37;10.13;;;6.75;;
38435;SDS011;24220;48.168;14.024;2022-09-24T05:41:07;8.75;;;6.25;;
38435;SDS011;24220;48.168;14.024;2022-09-24T05:43:38;7.05;;;6.28;;
38435;SDS011;24220;48.168;14.024;2022-09-24T05:46:06;7.60;;;5.82;;
38435;SDS011;24220;48.168;14.024;2022-09-24T05:48:41;7.38;;;6.68;;
38435;SDS011;24220;48.168;14.024;2022-09-24T05:51:09;8.95;;;6.60;;
38435;SDS011;24220;48.168;14.024;2022-09-24T05:53:36;8.07;;;7.28;;
38435;SDS011;24220;48.168;14.024;2022-09-24T05:56:04;9.25;;;6.72;;
38435;SDS011;24220;48.168;14.024;2022-09-24T05:58:32;7.95;;;6.03;;
38435;SDS011;24220;48.168;14.024;2022-09-24T06:00:59;9.50;;;6.78;;
38435;SDS011;24220;48.168;14.024;2022-09-24T06:03:32;7.78;;;6.97;;
38435;SDS011;24220;48.168;14.024;2022-09-24T06:06:00;7.97;;;7.13;;
38435;SDS011;24220;48.168;14.024;2022-09-24T06:08:28;7.40;;;6.10;;
38435;SDS011;24220;48.168;14.024;2022-09-24T06:13:31;8.13;;;6.90;;
38435;SDS011;24220;48.168;14.024;2022-09-24T06:16:01;9.07;;;6.90;;
38435;SDS011;24220;48.168;14.024;2022-09-24T06:18:31;7.43;;;6.72;;
38435;SDS011;24220;48.168;14.024;2022-09-24T06:21:03;9.05;;;7.53;;
38435;SDS011;24220;48.168;14.024;2022-09-24T06:23:35;9.30;;;7.30;;
38435;SDS011;24220;48.168;14.024;2022-09-24T06:26:06;7.53;;;6.72;;
38435;SDS011;24220;48.168;14.024;2022-09-24T06:28:36;8.35;;;6.82;;
38435;SDS011;24220;48.168;14.024;2022-09-24T06:31:05;7.70;;;6.63;;
38435;SDS011;24220;48.168;14.024;2022-09-24T06:33:33;8.55;;;7.00;;
38435;SDS011;24220;48.168;14.024;2022-09-24T06:36:02;8.02;;;6.88;;
38435;SDS011;24220;48.168;14.024;2022-09-24T06:38:32;8.35;;;6.80;;
38435;SDS011;24220;48.168;14.024;2022-09-24T06:41:08;9.45;;;7.13;;
38435;SDS011;24220;48.168;14.024;2022-09-24T06:43:36;9.50;;;7.13;;
38435;SDS011;24220;48.168;14.024;2022-09-24T06:46:04;7.20;;;6.47;;
38435;SDS011;24220;48.168;14.024;2022-09-24T06:48:34;8.68;;;6.75;;
38435;SDS011;24220;48.168;14.024;2022-09-24T06:51:04;8.68;;;7.65;;
38435;SDS011;24220;48.168;14.024;2022-09-24T06:53:31;7.53;;;6.82;;
38435;SDS011;24220;48.168;14.024;2022-09-24T06:56:01;7.45;;;6.72;;
38435;SDS011;24220;48.168;14.024;2022-09-24T06:58:29;8.35;;;6.93;;
38435;SDS011;24220;48.168;14.024;2022-09-24T07:01:00;7.55;;;6.78;;
38435;SDS011;24220;48.168;14.024;2022-09-24T07:03:31;8.75;;;7.15;;
38435;SDS011;24220;48.168;14.024;2022-09-24T07:06:02;9.63;;;6.90;;
38435;SDS011;24220;48.168;14.024;2022-09-24T07:08:31;8.25;;;7.45;;
38435;SDS011;24220;48.168;14.024;2022-09-24T07:11:04;10.18;;;6.85;;
38435;SDS011;24220;48.168;14.024;2022-09-24T07:13:32;7.72;;;6.90;;
38435;SDS011;24220;48.168;14.024;2022-09-24T07:16:04;7.72;;;6.32;;
38435;SDS011;24220;48.168;14.024;2022-09-24T07:18:32;7.22;;;6.50;;
38435;SDS011;24220;48.168;14.024;2022-09-24T07:21:03;6.88;;;6.13;;
38435;SDS011;24220;48.168;14.024;2022-09-24T07:23:32;6.80;;;6.10;;
38435;SDS011;24220;48.168;14.024;2022-09-24T07:26:07;7.28;;;6.28;;
38435;SDS011;24220;48.168;14.024;2022-09-24T07:28:34;6.68;;;6.05;;
38435;SDS011;24220;48.168;14.024;2022-09-24T07:31:01;7.18;;;6.40;;
38435;SDS011;24220;48.168;14.024;2022-09-24T07:33:32;7.38;;;6.55;;
38435;SDS011;24220;48.168;14.024;2022-09-24T07:36:02;7.40;;;6.05;;
38435;SDS011;24220;48.168;14.024;2022-09-24T07:38:35;7.28;;;6.57;;
38435;SDS011;24220;48.168;14.024;2022-09-24T07:41:08;8.57;;;5.85;;
38435;SDS011;24220;48.168;14.024;2022-09-24T07:43:38;6.95;;;6.35;;
38435;SDS011;24220;48.168;14.024;2022-09-24T07:46:06;6.18;;;5.57;;
38435;SDS011;24220;48.168;14.024;2022-09-24T07:48:34;6.53;;;5.93;;
38435;SDS011;24220;48.168;14.024;2022-09-24T07:51:08;7.32;;;6.25;;
38435;SDS011;24220;48.168;14.024;2022-09-24T07:53:35;7.18;;;5.80;;
38435;SDS011;24220;48.168;14.024;2022-09-24T07:56:06;6.25;;;5.65;;
38435;SDS011;24220;48.168;14.024;2022-09-24T07:58:33;7.38;;;5.72;;
38435;SDS011;24220;48.168;14.024;2022-09-24T08:01:01;6.53;;;5.10;;
38435;SDS011;24220;48.168;14.024;2022-09-24T08:03:29;6.20;;;5.47;;
38435;SDS011;24220;48.168;14.024;2022-09-24T08:05:57;6.30;;;5.70;;
38435;SDS011;24220;48.168;14.024;2022-09-24T08:08:27;5.75;;;5.25;;
38435;SDS011;24220;48.168;14.024;2022-09-24T08:10:56;5.40;;;4.90;;
38435;SDS011;24220;48.168;14.024;2022-09-24T08:13:29;5.95;;;5.35;;
38435;SDS011;24220;48.168;14.024;2022-09-24T08:15:57;5.60;;;4.88;;
38435;SDS011;24220;48.168;14.024;2022-09-24T08:18:25;8.23;;;5.07;;
38435;SDS011;24220;48.168;14.024;2022-09-24T08:20:54;5.70;;;5.20;;
38435;SDS011;24220;48.168;14.024;2022-09-24T08:23:22;6.05;;;5.28;;
38435;SDS011;24220;48.168;14.024;2022-09-24T08:25:52;7.25;;;5.93;;
38435;SDS011;24220;48.168;14.024;2022-09-24T08:28:21;5.50;;;5.00;;
38435;SDS011;24220;48.168;14.024;2022-09-24T08:30:50;5.80;;;5.20;;
38435;SDS011;24220;48.168;14.024;2022-09-24T08:33:18;5.45;;;4.82;;
38435;SDS011;24220;48.168;14.024;2022-09-24T08:35:46;6.75;;;4.97;;
38435;SDS011;24220;48.168;14.024;2022-09-24T08:38:13;5.30;;;4.80;;
38435;SDS011;24220;48.168;14.024;2022-09-24T08:40:47;5.10;;;4.60;;
38435;SDS011;24220;48.168;14.024;2022-09-24T08:45:54;5.85;;;4.65;;
38435;SDS011;24220;48.168;14.024;2022-09-24T08:48:45;6.28;;;4.90;;
38435;SDS011;24220;48.168;14.024;2022-09-24T08:51:19;4.93;;;4.43;;
38435;SDS011;24220;48.168;14.024;2022-09-24T08:54:01;5.25;;;4.75;;
38435;SDS011;24220;48.168;14.024;2022-09-24T08:56:34;5.10;;;4.38;;
38435;SDS011;24220;48.168;14.024;2022-09-24T09:07:24;5.72;;;5.13;;
38435;SDS011;24220;48.168;14.024;2022-09-24T09:10:12;8.02;;;7.22;;
38435;SDS011;24220;48.168;14.024;2022-09-24T09:15:24;8.00;;;5.97;;
38435;SDS011;24220;48.168;14.024;2022-09-24T09:18:01;6.85;;;5.78;;
38435;SDS011;24220;48.168;14.024;2022-09-24T09:20:43;6.47;;;5.78;;
38435;SDS011;24220;48.168;14.024;2022-09-24T09:23:37;6.78;;;6.13;;
38435;SDS011;24220;48.168;14.024;2022-09-24T09:26:13;5.70;;;4.88;;
38435;SDS011;24220;48.168;14.024;2022-09-24T09:28:44;5.90;;;5.18;;
38435;SDS011;24220;48.168;14.024;2022-09-24T09:31:25;5.78;;;4.75;;
38435;SDS011;24220;48.168;14.024;2022-09-24T09:34:14;5.18;;;4.28;;
38435;SDS011;24220;48.168;14.024;2022-09-24T09:42:58;4.35;;;3.67;;
38435;SDS011;24220;48.168;14.024;2022-09-24T09:45:37;4.30;;;3.80;;
38435;SDS011;24220;48.168;14.024;2022-09-24T09:48:28;4.97;;;4.20;;
38435;SDS011;24220;48.168;14.024;2022-09-24T09:51:03;4.88;;;4.18;;
38435;SDS011;24220;48.168;14.024;2022-09-24T09:53:37;4.82;;;4.05;;
38435;SDS011;24220;48.168;14.024;2022-09-24T09:56:08;4.40;;;4.00;;
38435;SDS011;24220;48.168;14.024;2022-09-24T09:58:42;3.90;;;3.58;;
38435;SDS011;24220;48.168;14.024;2022-09-24T10:01:13;5.07;;;4.20;;
38435;SDS011;24220;48.168;14.024;2022-09-24T10:06:28;4.97;;;3.63;;
38435;SDS011;24220;48.168;14.024;2022-09-24T10:12:04;5.57;;;4.15;;
38435;SDS011;24220;48.168;14.024;2022-09-24T10:14:33;6.75;;;4.03;;
38435;SDS011;24220;48.168;14.024;2022-09-24T10:17:09;4.90;;;4.28;;
38435;SDS011;24220;48.168;14.024;2022-09-24T10:19:44;4.10;;;3.70;;
38435;SDS011;24220;48.168;14.024;2022-09-24T10:22:19;9.65;;;3.53;;
38435;SDS011;24220;48.168;14.024;2022-09-24T10:24:53;5.50;;;4.00;;
38435;SDS011;24220;48.168;14.024;2022-09-24T10:27:35;5.68;;;4.13;;
38435;SDS011;24220;48.168;14.024;2022-09-24T10:30:10;4.80;;;4.28;;
38435;SDS011;24220;48.168;14.024;2022-09-24T10:33:02;4.45;;;4.05;;
38435;SDS011;24220;48.168;14.024;2022-09-24T10:35:35;5.43;;;4.57;;
38435;SDS011;24220;48.168;14.024;2022-09-24T10:38:14;4.47;;;3.90;;
38435;SDS011;24220;48.168;14.024;2022-09-24T10:40:44;4.68;;;4.28;;
38435;SDS011;24220;48.168;14.024;2022-09-24T10:43:18;4.00;;;3.63;;
38435;SDS011;24220;48.168;14.024;2022-09-24T10:48:49;6.55;;;3.97;;
38435;SDS011;24220;48.168;14.024;2022-09-24T10:57:03;6.13;;;4.40;;
38435;SDS011;24220;48.168;14.024;2022-09-24T10:59:43;5.05;;;4.20;;
38435;SDS011;24220;48.168;14.024;2022-09-24T11:05:20;4.22;;;3.83;;
38435;SDS011;24220;48.168;14.024;2022-09-24T11:08:00;4.45;;;3.50;;
38435;SDS011;24220;48.168;14.024;2022-09-24T11:19:18;4.07;;;3.70;;
38435;SDS011;24220;48.168;14.024;2022-09-24T11:22:22;3.78;;;3.38;;
38435;SDS011;24220;48.168;14.024;2022-09-24T11:28:11;3.67;;;3.33;;
38435;SDS011;24220;48.168;14.024;2022-09-24T11:56:30;4.07;;;3.50;;
38435;SDS011;24220;48.168;14.024;2022-09-24T11:59:20;4.63;;;3.50;;
38435;SDS011;24220;48.168;14.024;2022-09-24T12:02:02;3.33;;;3.03;;
38435;SDS011;24220;48.168;14.024;2022-09-24T12:04:50;4.55;;;3.63;;
38435;SDS011;24220;48.168;14.024;2022-09-24T12:07:31;3.88;;;3.47;;
38435;SDS011;24220;48.168;14.024;2022-09-24T12:10:06;5.55;;;3.20;;
38435;SDS011;24220;48.168;14.024;2022-09-24T12:13:00;5.50;;;3.17;;
38435;SDS011;24220;48.168;14.024;2022-09-24T12:15:49;4.13;;;3.15;;
38435;SDS011;24220;48.168;14.024;2022-09-24T12:20:58;8.88;;;3.38;;
38435;SDS011;24220;48.168;14.024;2022-09-24T12:23:34;4.38;;;3.10;;
38435;SDS011;24220;48.168;14.024;2022-09-24T12:26:06;4.10;;;3.08;;
38435;SDS011;24220;48.168;14.024;2022-09-24T12:31:50;3.90;;;3.15;;
38435;SDS011;24220;48.168;14.024;2022-09-24T12:34:50;4.13;;;2.92;;
38435;SDS011;24220;48.168;14.024;2022-09-24T12:37:41;3.47;;;3.17;;
38435;SDS011;24220;48.168;14.024;2022-09-24T12:42:44;3.60;;;3.00;;
38435;SDS011;24220;48.168;14.024;2022-09-24T12:45:16;3.88;;;3.30;;
38435;SDS011;24220;48.168;14.024;2022-09-24T12:47:49;5.05;;;3.60;;
38435;SDS011;24220;48.168;14.024;2022-09-24T12:50:39;5.97;;;3.42;;
38435;SDS011;24220;48.168;14.024;2022-09-24T12:53:27;6.00;;;3.08;;
38435;SDS011;24220;48.168;14.024;2022-09-24T12:56:00;5.03;;;3.40;;
38435;SDS011;24220;48.168;14.024;2022-09-24T12:58:41;5.05;;;3.28;;
38435;SDS011;24220;48.168;14.024;2022-09-24T13:01:24;3.22;;;2.92;;
38435;SDS011;24220;48.168;14.024;2022-09-24T13:04:04;3.30;;;3.00;;
38435;SDS011;24220;48.168;14.024;2022-09-24T13:06:42;3.20;;;2.85;;
38435;SDS011;24220;48.168;14.024;2022-09-24T13:09:31;3.78;;;3.05;;
38435;SDS011;24220;48.168;14.024;2022-09-24T13:12:16;3.38;;;3.08;;
38435;SDS011;24220;48.168;14.024;2022-09-24T13:17:32;4.45;;;3.40;;
38435;SDS011;24220;48.168;14.024;2022-09-24T13:20:05;3.67;;;3.10;;
38435;SDS011;24220;48.168;14.024;2022-09-24T13:22:35;3.63;;;3.15;;
38435;SDS011;24220;48.168;14.024;2022-09-24T13:32:41;3.92;;;3.00;;
38435;SDS011;24220;48.168;14.024;2022-09-24T13:35:21;3.45;;;3.13;;
38435;SDS011;24220;48.168;14.024;2022-09-24T13:37:56;4.97;;;3.05;;
38435;SDS011;24220;48.168;14.024;2022-09-24T13:40:36;4.15;;;3.10;;
38435;SDS011;24220;48.168;14.024;2022-09-24T13:43:50;3.38;;;2.78;;
38435;SDS011;24220;48.168;14.024;2022-09-24T13:46:00;4.45;;;2.90;;
38435;SDS011;24220;48.168;14.024;2022-09-24T13:48:37;3.85;;;2.95;;
38435;SDS011;24220;48.168;14.024;2022-09-24T13:51:15;5.80;;;3.50;;
38435;SDS011;24220;48.168;14.024;2022-09-24T13:53:51;3.65;;;3.25;;
38435;SDS011;24220;48.168;14.024;2022-09-24T13:56:35;3.95;;;3.45;;
38435;SDS011;24220;48.168;14.024;2022-09-24T13:59:11;6.55;;;3.38;;
38435;SDS011;24220;48.168;14.024;2022-09-24T14:01:42;4.10;;;3.00;;
38435;SDS011;24220;48.168;14.024;2022-09-24T14:04:15;8.73;;;3.78;;
38435;SDS011;24220;48.168;14.024;2022-09-24T14:06:52;3.75;;;3.08;;
38435;SDS011;24220;48.168;14.024;2022-09-24T14:09:23;4.30;;;3.50;;
38435;SDS011;24220;48.168;14.024;2022-09-24T14:12:01;3.85;;;3.45;;
38435;SDS011;24220;48.168;14.024;2022-09-24T14:14:51;4.93;;;3.35;;
38435;SDS011;24220;48.168;14.024;2022-09-24T14:17:19;3.67;;;3.17;;
38435;SDS011;24220;48.168;14.024;2022-09-24T14:19:53;4.00;;;3.03;;
38435;SDS011;24220;48.168;14.024;2022-09-24T14:22:22;3.50;;;3.20;;
38435;SDS011;24220;48.168;14.024;2022-09-24T14:24:56;3.88;;;3.50;;
38435;SDS011;24220;48.168;14.024;2022-09-24T14:27:29;3.55;;;3.25;;
38435;SDS011;24220;48.168;14.024;2022-09-24T14:30:03;6.47;;;3.20;;
38435;SDS011;24220;48.168;14.024;2022-09-24T14:32:48;5.63;;;3.70;;
38435;SDS011;24220;48.168;14.024;2022-09-24T14:35:32;3.50;;;3.20;;
38435;SDS011;24220;48.168;14.024;2022-09-24T14:38:03;3.80;;;3.03;;
38435;SDS011;24220;48.168;14.024;2022-09-24T14:41:04;4.13;;;3.72;;
38435;SDS011;24220;48.168;14.024;2022-09-24T14:46:15;3.88;;;3.28;;
38435;SDS011;24220;48.168;14.024;2022-09-24T14:48:48;3.67;;;3.05;;
38435;SDS011;24220;48.168;14.024;2022-09-24T14:51:22;3.40;;;3.08;;
38435;SDS011;24220;48.168;14.024;2022-09-24T14:56:50;5.75;;;2.78;;
38435;SDS011;24220;48.168;14.024;2022-09-24T14:59:28;3.70;;;3.15;;
38435;SDS011;24220;48.168;14.024;2022-09-24T15:02:03;4.03;;;3.13;;
38435;SDS011;24220;48.168;14.024;2022-09-24T15:04:47;5.07;;;3.05;;
38435;SDS011;24220;48.168;14.024;2022-09-24T15:07:21;4.85;;;3.15;;
38435;SDS011;24220;48.168;14.024;2022-09-24T15:09:56;4.38;;;2.97;;
38435;SDS011;24220;48.168;14.024;2022-09-24T15:12:31;4.43;;;3.08;;
38435;SDS011;24220;48.168;14.024;2022-09-24T15:17:52;4.18;;;3.03;;
38435;SDS011;24220;48.168;14.024;2022-09-24T15:20:19;2.88;;;2.67;;
38435;SDS011;24220;48.168;14.024;2022-09-24T15:22:49;5.93;;;3.33;;
38435;SDS011;24220;48.168;14.024;2022-09-24T15:25:16;4.60;;;3.40;;
38435;SDS011;24220;48.168;14.024;2022-09-24T15:27:44;4.85;;;3.03;;
38435;SDS011;24220;48.168;14.024;2022-09-24T15:30:21;5.18;;;3.25;;
38435;SDS011;24220;48.168;14.024;2022-09-24T15:32:51;4.38;;;3.10;;
38435;SDS011;24220;48.168;14.024;2022-09-24T15:35:19;3.55;;;3.25;;
38435;SDS011;24220;48.168;14.024;2022-09-24T15:37:46;3.63;;;2.95;;
38435;SDS011;24220;48.168;14.024;2022-09-24T15:40:16;3.95;;;3.00;;
38435;SDS011;24220;48.168;14.024;2022-09-24T15:42:49;5.03;;;3.50;;
38435;SDS011;24220;48.168;14.024;2022-09-24T15:45:22;4.28;;;3.40;;
38435;SDS011;24220;48.168;14.024;2022-09-24T15:47:52;3.40;;;3.10;;
38435;SDS011;24220;48.168;14.024;2022-09-24T15:50:22;3.53;;;3.22;;
38435;SDS011;24220;48.168;14.024;2022-09-24T15:52:53;6.85;;;3.00;;
38435;SDS011;24220;48.168;14.024;2022-09-24T15:55:26;3.30;;;3.00;;
38435;SDS011;24220;48.168;14.024;2022-09-24T15:57:57;4.57;;;3.45;;
38435;SDS011;24220;48.168;14.024;2022-09-24T16:00:24;4.57;;;3.67;;
38435;SDS011;24220;48.168;14.024;2022-09-24T16:02:56;4.90;;;3.60;;
38435;SDS011;24220;48.168;14.024;2022-09-24T16:05:27;4.30;;;3.80;;
38435;SDS011;24220;48.168;14.024;2022-09-24T16:07:57;5.80;;;3.75;;
38435;SDS011;24220;48.168;14.024;2022-09-24T16:10:25;5.57;;;3.53;;
38435;SDS011;24220;48.168;14.024;2022-09-24T16:12:52;5.03;;;3.60;;
38435;SDS011;24220;48.168;14.024;2022-09-24T16:15:20;5.22;;;3.70;;
38435;SDS011;24220;48.168;14.024;2022-09-24T16:17:48;4.03;;;3.50;;
38435;SDS011;24220;48.168;14.024;2022-09-24T16:20:15;5.28;;;3.53;;
38435;SDS011;24220;48.168;14.024;2022-09-24T16:22:43;6.70;;;3.85;;
38435;SDS011;24220;48.168;14.024;2022-09-24T16:25:14;4.53;;;3.65;;
38435;SDS011;24220;48.168;14.024;2022-09-24T16:27:42;4.45;;;3.53;;
38435;SDS011;24220;48.168;14.024;2022-09-24T16:30:11;3.90;;;3.40;;
38435;SDS011;24220;48.168;14.024;2022-09-24T16:32:39;5.32;;;3.75;;
38435;SDS011;24220;48.168;14.024;2022-09-24T16:35:07;4.85;;;3.47;;
38435;SDS011;24220;48.168;14.024;2022-09-24T16:37:36;5.22;;;3.90;;
38435;SDS011;24220;48.168;14.024;2022-09-24T16:40:09;5.28;;;3.92;;
38435;SDS011;24220;48.168;14.024;2022-09-24T16:42:38;4.18;;;3.67;;
38435;SDS011;24220;48.168;14.024;2022-09-24T16:45:05;5.63;;;3.88;;
38435;SDS011;24220;48.168;14.024;2022-09-24T16:47:40;4.35;;;3.95;;
38435;SDS011;24220;48.168;14.024;2022-09-24T16:50:07;5.97;;;4.32;;
38435;SDS011;24220;48.168;14.024;2022-09-24T16:52:41;6.50;;;4.57;;
38435;SDS011;24220;48.168;14.024;2022-09-24T16:55:11;6.05;;;4.93;;
38435;SDS011;24220;48.168;14.024;2022-09-24T16:57:41;6.40;;;5.18;;
38435;SDS011;24220;48.168;14.024;2022-09-24T17:00:09;8.35;;;4.80;;
38435;SDS011;24220;48.168;14.024;2022-09-24T17:02:37;6.30;;;4.57;;
38435;SDS011;24220;48.168;14.024;2022-09-24T17:05:08;5.93;;;5.15;;
38435;SDS011;24220;48.168;14.024;2022-09-24T17:07:37;7.25;;;5.40;;
38435;SDS011;24220;48.168;14.024;2022-09-24T17:10:05;6.70;;;5.35;;
38435;SDS011;24220;48.168;14.024;2022-09-24T17:12:42;7.72;;;5.90;;
38435;SDS011;24220;48.168;14.024;2022-09-24T17:15:12;12.15;;;8.10;;
38435;SDS011;24220;48.168;14.024;2022-09-24T17:17:45;10.90;;;8.43;;